sensor_id;sensor_type;location;lat;lon;timestamp;P1;durP1;ratioP1;P2;durP2;ratioP2
41446;SDS011;27185;52.040;4.490;2024-02-23T00:00:35;12.90;;;2.22;;
41446;SDS011;27185;52.040;4.490;2024-02-23T00:03:20;9.95;;;1.48;;
41446;SDS011;27185;52.040;4.490;2024-02-23T00:06:09;12.18;;;1.40;;
41446;SDS011;27185;52.040;4.490;2024-02-23T00:08:55;10.90;;;1.20;;
41446;SDS011;27185;52.040;4.490;2024-02-23T00:11:41;17.15;;;1.88;;
41446;SDS011;27185;52.040;4.490;2024-02-23T00:14:30;12.30;;;1.67;;
41446;SDS011;27185;52.040;4.490;2024-02-23T00:17:16;10.23;;;1.60;;
41446;SDS011;27185;52.040;4.490;2024-02-23T00:20:02;15.25;;;1.38;;
41446;SDS011;27185;52.040;4.490;2024-02-23T00:22:48;8.35;;;1.52;;
41446;SDS011;27185;52.040;4.490;2024-02-23T00:25:34;21.02;;;1.67;;
41446;SDS011;27185;52.040;4.490;2024-02-23T00:28:20;7.00;;;1.00;;
41446;SDS011;27185;52.040;4.490;2024-02-23T00:31:06;10.85;;;1.15;;
41446;SDS011;27185;52.040;4.490;2024-02-23T00:33:54;7.68;;;1.42;;
41446;SDS011;27185;52.040;4.490;2024-02-23T00:36:41;11.82;;;1.38;;
41446;SDS011;27185;52.040;4.490;2024-02-23T00:39:27;16.95;;;3.38;;
41446;SDS011;27185;52.040;4.490;2024-02-23T00:42:13;8.45;;;1.30;;
41446;SDS011;27185;52.040;4.490;2024-02-23T00:44:59;17.23;;;2.30;;
41446;SDS011;27185;52.040;4.490;2024-02-23T00:47:54;10.52;;;1.40;;
41446;SDS011;27185;52.040;4.490;2024-02-23T00:50:39;7.72;;;1.10;;
41446;SDS011;27185;52.040;4.490;2024-02-23T00:53:25;13.30;;;1.70;;
41446;SDS011;27185;52.040;4.490;2024-02-23T00:58:59;10.25;;;1.15;;
41446;SDS011;27185;52.040;4.490;2024-02-23T01:01:48;13.07;;;1.75;;
41446;SDS011;27185;52.040;4.490;2024-02-23T01:04:34;10.98;;;1.30;;
41446;SDS011;27185;52.040;4.490;2024-02-23T01:07:19;16.48;;;1.92;;
41446;SDS011;27185;52.040;4.490;2024-02-23T01:10:14;13.05;;;1.60;;
41446;SDS011;27185;52.040;4.490;2024-02-23T01:17:46;12.90;;;1.88;;
41446;SDS011;27185;52.040;4.490;2024-02-23T01:20:33;13.85;;;1.52;;
41446;SDS011;27185;52.040;4.490;2024-02-23T01:23:19;12.82;;;1.10;;
41446;SDS011;27185;52.040;4.490;2024-02-23T01:26:16;15.85;;;1.35;;
41446;SDS011;27185;52.040;4.490;2024-02-23T01:29:11;10.02;;;1.10;;
41446;SDS011;27185;52.040;4.490;2024-02-23T01:32:09;12.55;;;1.40;;
41446;SDS011;27185;52.040;4.490;2024-02-23T01:35:04;13.38;;;1.50;;
41446;SDS011;27185;52.040;4.490;2024-02-23T01:37:58;8.73;;;1.55;;
41446;SDS011;27185;52.040;4.490;2024-02-23T01:40:59;13.60;;;1.55;;
41446;SDS011;27185;52.040;4.490;2024-02-23T01:44:01;11.90;;;1.38;;
41446;SDS011;27185;52.040;4.490;2024-02-23T01:47:02;15.18;;;1.45;;
41446;SDS011;27185;52.040;4.490;2024-02-23T01:49:51;13.00;;;1.48;;
41446;SDS011;27185;52.040;4.490;2024-02-23T01:52:45;12.80;;;1.65;;
41446;SDS011;27185;52.040;4.490;2024-02-23T01:55:46;9.20;;;0.95;;
41446;SDS011;27185;52.040;4.490;2024-02-23T01:58:47;13.10;;;1.73;;
41446;SDS011;27185;52.040;4.490;2024-02-23T02:01:36;6.45;;;0.80;;
41446;SDS011;27185;52.040;4.490;2024-02-23T02:04:22;7.70;;;0.93;;
41446;SDS011;27185;52.040;4.490;2024-02-23T02:07:11;11.45;;;1.00;;
41446;SDS011;27185;52.040;4.490;2024-02-23T02:10:37;10.77;;;1.20;;
41446;SDS011;27185;52.040;4.490;2024-02-23T02:13:36;7.65;;;1.08;;
41446;SDS011;27185;52.040;4.490;2024-02-23T02:16:37;8.43;;;0.80;;
41446;SDS011;27185;52.040;4.490;2024-02-23T02:19:31;12.90;;;1.10;;
41446;SDS011;27185;52.040;4.490;2024-02-23T02:22:17;11.82;;;1.30;;
41446;SDS011;27185;52.040;4.490;2024-02-23T02:25:05;10.63;;;1.27;;
41446;SDS011;27185;52.040;4.490;2024-02-23T02:27:51;7.55;;;1.27;;
41446;SDS011;27185;52.040;4.490;2024-02-23T02:30:38;14.20;;;1.92;;
41446;SDS011;27185;52.040;4.490;2024-02-23T02:33:23;14.10;;;1.65;;
41446;SDS011;27185;52.040;4.490;2024-02-23T02:36:09;8.23;;;1.40;;
41446;SDS011;27185;52.040;4.490;2024-02-23T02:38:59;12.73;;;1.83;;
41446;SDS011;27185;52.040;4.490;2024-02-23T02:41:48;11.57;;;1.20;;
41446;SDS011;27185;52.040;4.490;2024-02-23T02:44:34;8.75;;;1.38;;
41446;SDS011;27185;52.040;4.490;2024-02-23T02:47:20;13.00;;;1.33;;
41446;SDS011;27185;52.040;4.490;2024-02-23T02:50:08;9.48;;;1.20;;
41446;SDS011;27185;52.040;4.490;2024-02-23T02:52:54;12.02;;;1.65;;
41446;SDS011;27185;52.040;4.490;2024-02-23T02:55:41;8.95;;;1.15;;
41446;SDS011;27185;52.040;4.490;2024-02-23T02:58:28;9.32;;;1.20;;
41446;SDS011;27185;52.040;4.490;2024-02-23T03:01:13;14.05;;;1.10;;
41446;SDS011;27185;52.040;4.490;2024-02-23T03:03:59;12.73;;;1.83;;
41446;SDS011;27185;52.040;4.490;2024-02-23T03:06:45;12.88;;;1.63;;
41446;SDS011;27185;52.040;4.490;2024-02-23T03:09:31;12.57;;;1.08;;
41446;SDS011;27185;52.040;4.490;2024-02-23T03:12:18;11.32;;;1.13;;
41446;SDS011;27185;52.040;4.490;2024-02-23T03:15:04;14.90;;;1.33;;
41446;SDS011;27185;52.040;4.490;2024-02-23T03:17:51;14.07;;;1.30;;
41446;SDS011;27185;52.040;4.490;2024-02-23T03:20:39;7.28;;;1.42;;
41446;SDS011;27185;52.040;4.490;2024-02-23T03:23:26;12.05;;;1.10;;
41446;SDS011;27185;52.040;4.490;2024-02-23T03:26:14;10.63;;;1.38;;
41446;SDS011;27185;52.040;4.490;2024-02-23T03:29:02;13.30;;;1.33;;
41446;SDS011;27185;52.040;4.490;2024-02-23T03:31:48;16.50;;;1.58;;
41446;SDS011;27185;52.040;4.490;2024-02-23T03:34:36;9.60;;;1.27;;
41446;SDS011;27185;52.040;4.490;2024-02-23T03:37:25;12.95;;;1.35;;
41446;SDS011;27185;52.040;4.490;2024-02-23T03:40:10;11.65;;;1.20;;
41446;SDS011;27185;52.040;4.490;2024-02-23T03:42:57;9.73;;;1.15;;
41446;SDS011;27185;52.040;4.490;2024-02-23T03:45:43;9.48;;;1.25;;
41446;SDS011;27185;52.040;4.490;2024-02-23T03:48:29;12.02;;;1.63;;
41446;SDS011;27185;52.040;4.490;2024-02-23T03:51:15;14.32;;;0.90;;
41446;SDS011;27185;52.040;4.490;2024-02-23T03:54:01;12.65;;;1.00;;
41446;SDS011;27185;52.040;4.490;2024-02-23T03:56:48;10.30;;;0.80;;
41446;SDS011;27185;52.040;4.490;2024-02-23T03:59:35;14.00;;;1.20;;
41446;SDS011;27185;52.040;4.490;2024-02-23T04:02:22;14.60;;;1.40;;
41446;SDS011;27185;52.040;4.490;2024-02-23T04:05:09;11.90;;;1.40;;
41446;SDS011;27185;52.040;4.490;2024-02-23T04:07:55;10.38;;;0.98;;
41446;SDS011;27185;52.040;4.490;2024-02-23T04:10:41;8.50;;;1.20;;
41446;SDS011;27185;52.040;4.490;2024-02-23T04:13:26;11.00;;;1.30;;
41446;SDS011;27185;52.040;4.490;2024-02-23T04:16:12;15.38;;;1.42;;
41446;SDS011;27185;52.040;4.490;2024-02-23T04:18:58;11.32;;;1.60;;
41446;SDS011;27185;52.040;4.490;2024-02-23T04:21:45;13.13;;;1.33;;
41446;SDS011;27185;52.040;4.490;2024-02-23T04:24:31;14.05;;;1.52;;
41446;SDS011;27185;52.040;4.490;2024-02-23T04:27:17;12.88;;;1.95;;
41446;SDS011;27185;52.040;4.490;2024-02-23T04:30:03;14.63;;;1.30;;
41446;SDS011;27185;52.040;4.490;2024-02-23T04:32:49;10.95;;;1.25;;
41446;SDS011;27185;52.040;4.490;2024-02-23T04:35:35;15.98;;;2.00;;
41446;SDS011;27185;52.040;4.490;2024-02-23T04:38:21;10.15;;;0.80;;
41446;SDS011;27185;52.040;4.490;2024-02-23T04:41:07;8.82;;;0.90;;
41446;SDS011;27185;52.040;4.490;2024-02-23T04:43:53;10.65;;;1.30;;
41446;SDS011;27185;52.040;4.490;2024-02-23T04:46:44;8.82;;;1.27;;
41446;SDS011;27185;52.040;4.490;2024-02-23T04:49:33;7.65;;;0.95;;
41446;SDS011;27185;52.040;4.490;2024-02-23T04:52:22;7.32;;;0.80;;
41446;SDS011;27185;52.040;4.490;2024-02-23T04:55:08;6.53;;;1.20;;
41446;SDS011;27185;52.040;4.490;2024-02-23T04:57:54;4.88;;;0.65;;
41446;SDS011;27185;52.040;4.490;2024-02-23T05:00:43;4.22;;;0.90;;
41446;SDS011;27185;52.040;4.490;2024-02-23T05:03:29;8.52;;;0.65;;
41446;SDS011;27185;52.040;4.490;2024-02-23T05:06:15;7.18;;;0.70;;
41446;SDS011;27185;52.040;4.490;2024-02-23T05:09:02;4.68;;;0.40;;
41446;SDS011;27185;52.040;4.490;2024-02-23T05:11:48;4.03;;;0.50;;
41446;SDS011;27185;52.040;4.490;2024-02-23T05:14:34;4.45;;;0.70;;
41446;SDS011;27185;52.040;4.490;2024-02-23T05:17:20;6.82;;;1.25;;
41446;SDS011;27185;52.040;4.490;2024-02-23T05:20:06;7.82;;;0.82;;
41446;SDS011;27185;52.040;4.490;2024-02-23T05:22:57;6.05;;;1.10;;
41446;SDS011;27185;52.040;4.490;2024-02-23T05:25:46;8.65;;;0.80;;
41446;SDS011;27185;52.040;4.490;2024-02-23T05:28:32;10.80;;;1.33;;
41446;SDS011;27185;52.040;4.490;2024-02-23T05:31:18;9.98;;;0.90;;
41446;SDS011;27185;52.040;4.490;2024-02-23T05:34:05;6.35;;;1.50;;
41446;SDS011;27185;52.040;4.490;2024-02-23T05:36:50;5.45;;;0.90;;
41446;SDS011;27185;52.040;4.490;2024-02-23T05:39:36;8.95;;;1.13;;
41446;SDS011;27185;52.040;4.490;2024-02-23T05:45:11;4.32;;;1.00;;
41446;SDS011;27185;52.040;4.490;2024-02-23T05:47:57;7.07;;;1.05;;
41446;SDS011;27185;52.040;4.490;2024-02-23T05:50:43;7.75;;;1.30;;
41446;SDS011;27185;52.040;4.490;2024-02-23T05:53:32;9.73;;;0.93;;
41446;SDS011;27185;52.040;4.490;2024-02-23T05:56:18;8.20;;;1.00;;
41446;SDS011;27185;52.040;4.490;2024-02-23T05:59:07;9.70;;;1.60;;
41446;SDS011;27185;52.040;4.490;2024-02-23T06:01:53;9.10;;;1.67;;
41446;SDS011;27185;52.040;4.490;2024-02-23T06:04:41;5.78;;;1.60;;
41446;SDS011;27185;52.040;4.490;2024-02-23T06:07:28;13.65;;;2.75;;
41446;SDS011;27185;52.040;4.490;2024-02-23T06:10:15;5.07;;;1.88;;
41446;SDS011;27185;52.040;4.490;2024-02-23T06:13:01;6.50;;;1.70;;
41446;SDS011;27185;52.040;4.490;2024-02-23T06:15:46;12.02;;;2.58;;
41446;SDS011;27185;52.040;4.490;2024-02-23T06:18:32;9.50;;;2.00;;
41446;SDS011;27185;52.040;4.490;2024-02-23T06:21:19;10.90;;;2.25;;
41446;SDS011;27185;52.040;4.490;2024-02-23T06:24:05;9.27;;;1.95;;
41446;SDS011;27185;52.040;4.490;2024-02-23T06:26:56;8.63;;;3.00;;
41446;SDS011;27185;52.040;4.490;2024-02-23T06:29:43;13.88;;;2.13;;
41446;SDS011;27185;52.040;4.490;2024-02-23T06:32:31;10.38;;;1.98;;
41446;SDS011;27185;52.040;4.490;2024-02-23T06:35:17;7.03;;;1.38;;
41446;SDS011;27185;52.040;4.490;2024-02-23T06:38:03;5.60;;;1.30;;
41446;SDS011;27185;52.040;4.490;2024-02-23T06:40:51;9.70;;;1.60;;
41446;SDS011;27185;52.040;4.490;2024-02-23T06:43:37;10.23;;;2.17;;
41446;SDS011;27185;52.040;4.490;2024-02-23T06:46:23;9.13;;;1.75;;
41446;SDS011;27185;52.040;4.490;2024-02-23T06:49:09;9.05;;;1.80;;
41446;SDS011;27185;52.040;4.490;2024-02-23T06:51:59;11.05;;;2.33;;
41446;SDS011;27185;52.040;4.490;2024-02-23T06:54:48;11.48;;;2.38;;
41446;SDS011;27185;52.040;4.490;2024-02-23T06:57:34;15.77;;;2.70;;
41446;SDS011;27185;52.040;4.490;2024-02-23T07:00:20;10.68;;;2.70;;
41446;SDS011;27185;52.040;4.490;2024-02-23T07:03:06;11.75;;;2.10;;
41446;SDS011;27185;52.040;4.490;2024-02-23T07:05:52;8.43;;;2.30;;
41446;SDS011;27185;52.040;4.490;2024-02-23T07:08:38;10.82;;;2.72;;
41446;SDS011;27185;52.040;4.490;2024-02-23T07:11:24;14.85;;;2.50;;
41446;SDS011;27185;52.040;4.490;2024-02-23T07:14:10;9.68;;;2.38;;
41446;SDS011;27185;52.040;4.490;2024-02-23T07:16:58;12.25;;;2.60;;
41446;SDS011;27185;52.040;4.490;2024-02-23T07:19:43;6.85;;;2.05;;
41446;SDS011;27185;52.040;4.490;2024-02-23T07:22:29;6.10;;;2.40;;
41446;SDS011;27185;52.040;4.490;2024-02-23T07:25:18;9.25;;;2.90;;
41446;SDS011;27185;52.040;4.490;2024-02-23T07:28:07;9.18;;;2.42;;
41446;SDS011;27185;52.040;4.490;2024-02-23T07:30:57;14.90;;;2.70;;
41446;SDS011;27185;52.040;4.490;2024-02-23T07:33:43;11.90;;;2.95;;
41446;SDS011;27185;52.040;4.490;2024-02-23T07:36:29;17.15;;;2.90;;
41446;SDS011;27185;52.040;4.490;2024-02-23T07:39:15;17.33;;;3.42;;
41446;SDS011;27185;52.040;4.490;2024-02-23T07:42:31;11.75;;;3.58;;
41446;SDS011;27185;52.040;4.490;2024-02-23T07:52:19;10.75;;;2.70;;
41446;SDS011;27185;52.040;4.490;2024-02-23T07:55:19;12.00;;;2.47;;
41446;SDS011;27185;52.040;4.490;2024-02-23T07:58:31;7.53;;;2.35;;
41446;SDS011;27185;52.040;4.490;2024-02-23T08:08:36;8.88;;;2.92;;
41446;SDS011;27185;52.040;4.490;2024-02-23T08:11:44;12.25;;;2.97;;
41446;SDS011;27185;52.040;4.490;2024-02-23T08:15:09;14.02;;;3.05;;
41446;SDS011;27185;52.040;4.490;2024-02-23T08:18:30;13.93;;;2.47;;
41446;SDS011;27185;52.040;4.490;2024-02-23T08:21:48;8.75;;;2.47;;
41446;SDS011;27185;52.040;4.490;2024-02-23T08:24:49;14.32;;;2.55;;
41446;SDS011;27185;52.040;4.490;2024-02-23T08:28:05;10.43;;;2.70;;
41446;SDS011;27185;52.040;4.490;2024-02-23T08:31:06;12.85;;;3.40;;
41446;SDS011;27185;52.040;4.490;2024-02-23T08:34:18;5.80;;;2.20;;
41446;SDS011;27185;52.040;4.490;2024-02-23T08:37:12;10.73;;;2.13;;
41446;SDS011;27185;52.040;4.490;2024-02-23T08:40:05;7.75;;;1.90;;
41446;SDS011;27185;52.040;4.490;2024-02-23T08:47:00;13.05;;;3.25;;
41446;SDS011;27185;52.040;4.490;2024-02-23T08:57:38;16.15;;;3.67;;
41446;SDS011;27185;52.040;4.490;2024-02-23T09:16:12;7.95;;;2.20;;
41446;SDS011;27185;52.040;4.490;2024-02-23T09:19:11;10.52;;;2.33;;
41446;SDS011;27185;52.040;4.490;2024-02-23T09:28:39;9.57;;;1.85;;
41446;SDS011;27185;52.040;4.490;2024-02-23T09:35:49;12.48;;;1.52;;
41446;SDS011;27185;52.040;4.490;2024-02-23T09:38:46;11.00;;;1.40;;
41446;SDS011;27185;52.040;4.490;2024-02-23T09:41:50;6.47;;;1.40;;
41446;SDS011;27185;52.040;4.490;2024-02-23T09:44:39;11.30;;;1.50;;
41446;SDS011;27185;52.040;4.490;2024-02-23T09:47:30;6.82;;;1.25;;
41446;SDS011;27185;52.040;4.490;2024-02-23T09:50:17;8.18;;;1.40;;
41446;SDS011;27185;52.040;4.490;2024-02-23T09:53:04;9.93;;;1.40;;
41446;SDS011;27185;52.040;4.490;2024-02-23T09:55:54;10.52;;;1.27;;
41446;SDS011;27185;52.040;4.490;2024-02-23T09:58:41;8.18;;;1.33;;
41446;SDS011;27185;52.040;4.490;2024-02-23T10:01:31;8.98;;;1.60;;
41446;SDS011;27185;52.040;4.490;2024-02-23T10:04:21;9.20;;;1.50;;
41446;SDS011;27185;52.040;4.490;2024-02-23T10:07:09;10.93;;;1.40;;
41446;SDS011;27185;52.040;4.490;2024-02-23T10:09:58;8.90;;;1.17;;
41446;SDS011;27185;52.040;4.490;2024-02-23T10:12:44;7.25;;;0.98;;
41446;SDS011;27185;52.040;4.490;2024-02-23T10:15:30;8.80;;;1.20;;
41446;SDS011;27185;52.040;4.490;2024-02-23T10:18:19;4.60;;;0.90;;
41446;SDS011;27185;52.040;4.490;2024-02-23T10:21:06;7.35;;;1.17;;
41446;SDS011;27185;52.040;4.490;2024-02-23T10:23:52;10.20;;;1.23;;
41446;SDS011;27185;52.040;4.490;2024-02-23T10:26:38;6.70;;;1.70;;
41446;SDS011;27185;52.040;4.490;2024-02-23T10:29:25;7.45;;;1.48;;
41446;SDS011;27185;52.040;4.490;2024-02-23T10:32:14;6.53;;;1.13;;
41446;SDS011;27185;52.040;4.490;2024-02-23T10:35:00;6.13;;;0.98;;
41446;SDS011;27185;52.040;4.490;2024-02-23T10:37:49;8.18;;;0.98;;
41446;SDS011;27185;52.040;4.490;2024-02-23T10:40:36;4.68;;;1.33;;
41446;SDS011;27185;52.040;4.490;2024-02-23T10:43:29;5.53;;;0.85;;
41446;SDS011;27185;52.040;4.490;2024-02-23T10:46:19;5.63;;;1.20;;
41446;SDS011;27185;52.040;4.490;2024-02-23T10:49:06;8.00;;;0.75;;
41446;SDS011;27185;52.040;4.490;2024-02-23T10:51:52;6.30;;;0.85;;
41446;SDS011;27185;52.040;4.490;2024-02-23T10:54:39;8.98;;;1.20;;
41446;SDS011;27185;52.040;4.490;2024-02-23T10:57:28;4.25;;;0.80;;
41446;SDS011;27185;52.040;4.490;2024-02-23T11:00:14;4.97;;;1.10;;
41446;SDS011;27185;52.040;4.490;2024-02-23T11:03:03;7.00;;;1.05;;
41446;SDS011;27185;52.040;4.490;2024-02-23T11:05:53;6.50;;;1.00;;
41446;SDS011;27185;52.040;4.490;2024-02-23T11:08:39;6.40;;;0.90;;
41446;SDS011;27185;52.040;4.490;2024-02-23T11:11:25;8.25;;;0.82;;
41446;SDS011;27185;52.040;4.490;2024-02-23T11:14:11;9.73;;;1.10;;
41446;SDS011;27185;52.040;4.490;2024-02-23T11:16:57;6.57;;;1.25;;
41446;SDS011;27185;52.040;4.490;2024-02-23T11:19:43;7.80;;;1.05;;
41446;SDS011;27185;52.040;4.490;2024-02-23T11:22:34;10.57;;;1.00;;
41446;SDS011;27185;52.040;4.490;2024-02-23T11:25:20;6.70;;;1.05;;
41446;SDS011;27185;52.040;4.490;2024-02-23T11:28:21;9.77;;;1.13;;
41446;SDS011;27185;52.040;4.490;2024-02-23T11:31:15;5.60;;;1.10;;
41446;SDS011;27185;52.040;4.490;2024-02-23T11:34:07;6.60;;;0.93;;
41446;SDS011;27185;52.040;4.490;2024-02-23T11:36:54;7.13;;;0.90;;
41446;SDS011;27185;52.040;4.490;2024-02-23T11:39:41;4.60;;;1.00;;
41446;SDS011;27185;52.040;4.490;2024-02-23T11:42:27;4.00;;;0.85;;
41446;SDS011;27185;52.040;4.490;2024-02-23T11:45:14;4.32;;;0.85;;
41446;SDS011;27185;52.040;4.490;2024-02-23T11:48:00;8.60;;;1.15;;
41446;SDS011;27185;52.040;4.490;2024-02-23T11:50:47;3.85;;;1.05;;
41446;SDS011;27185;52.040;4.490;2024-02-23T11:53:35;5.63;;;1.40;;
41446;SDS011;27185;52.040;4.490;2024-02-23T11:56:26;4.25;;;0.85;;
41446;SDS011;27185;52.040;4.490;2024-02-23T11:59:11;5.30;;;0.98;;
41446;SDS011;27185;52.040;4.490;2024-02-23T12:01:58;7.35;;;0.85;;
41446;SDS011;27185;52.040;4.490;2024-02-23T12:04:44;4.55;;;0.85;;
41446;SDS011;27185;52.040;4.490;2024-02-23T12:07:29;7.28;;;1.35;;
41446;SDS011;27185;52.040;4.490;2024-02-23T12:10:16;6.55;;;0.95;;
41446;SDS011;27185;52.040;4.490;2024-02-23T12:13:02;3.40;;;0.63;;
41446;SDS011;27185;52.040;4.490;2024-02-23T12:15:48;6.55;;;0.95;;
41446;SDS011;27185;52.040;4.490;2024-02-23T12:18:40;5.53;;;1.00;;
41446;SDS011;27185;52.040;4.490;2024-02-23T12:21:26;8.00;;;1.13;;
41446;SDS011;27185;52.040;4.490;2024-02-23T12:24:12;4.88;;;1.05;;
41446;SDS011;27185;52.040;4.490;2024-02-23T12:26:57;6.35;;;1.20;;
41446;SDS011;27185;52.040;4.490;2024-02-23T12:29:52;6.60;;;0.80;;
41446;SDS011;27185;52.040;4.490;2024-02-23T12:32:38;6.15;;;1.10;;
41446;SDS011;27185;52.040;4.490;2024-02-23T12:35:24;8.13;;;0.93;;
41446;SDS011;27185;52.040;4.490;2024-02-23T12:38:10;5.57;;;1.15;;
41446;SDS011;27185;52.040;4.490;2024-02-23T12:40:56;4.28;;;0.70;;
41446;SDS011;27185;52.040;4.490;2024-02-23T12:43:42;4.43;;;0.90;;
41446;SDS011;27185;52.040;4.490;2024-02-23T12:46:27;7.72;;;1.15;;
41446;SDS011;27185;52.040;4.490;2024-02-23T12:49:13;4.53;;;0.90;;
41446;SDS011;27185;52.040;4.490;2024-02-23T12:51:58;5.47;;;0.80;;
41446;SDS011;27185;52.040;4.490;2024-02-23T12:54:44;7.13;;;1.23;;
41446;SDS011;27185;52.040;4.490;2024-02-23T12:57:30;5.05;;;0.93;;
41446;SDS011;27185;52.040;4.490;2024-02-23T13:00:15;3.88;;;0.70;;
41446;SDS011;27185;52.040;4.490;2024-02-23T13:03:02;6.15;;;1.00;;
41446;SDS011;27185;52.040;4.490;2024-02-23T13:05:47;4.93;;;0.80;;
41446;SDS011;27185;52.040;4.490;2024-02-23T13:08:33;4.53;;;0.93;;
41446;SDS011;27185;52.040;4.490;2024-02-23T13:11:20;5.50;;;0.70;;
41446;SDS011;27185;52.040;4.490;2024-02-23T13:14:06;3.95;;;0.63;;
41446;SDS011;27185;52.040;4.490;2024-02-23T13:16:54;5.90;;;0.60;;
41446;SDS011;27185;52.040;4.490;2024-02-23T13:19:40;1.73;;;0.50;;
41446;SDS011;27185;52.040;4.490;2024-02-23T13:22:26;3.22;;;0.95;;
41446;SDS011;27185;52.040;4.490;2024-02-23T13:25:13;3.50;;;0.40;;
41446;SDS011;27185;52.040;4.490;2024-02-23T13:27:58;2.30;;;0.50;;
41446;SDS011;27185;52.040;4.490;2024-02-23T13:30:46;2.45;;;0.30;;
41446;SDS011;27185;52.040;4.490;2024-02-23T13:33:31;3.05;;;0.50;;
41446;SDS011;27185;52.040;4.490;2024-02-23T13:36:17;2.40;;;0.30;;
41446;SDS011;27185;52.040;4.490;2024-02-23T13:39:03;4.32;;;0.38;;
41446;SDS011;27185;52.040;4.490;2024-02-23T13:41:48;1.83;;;0.30;;
41446;SDS011;27185;52.040;4.490;2024-02-23T13:44:34;4.85;;;0.40;;
41446;SDS011;27185;52.040;4.490;2024-02-23T13:47:20;1.77;;;0.30;;
41446;SDS011;27185;52.040;4.490;2024-02-23T13:50:06;3.13;;;0.40;;
41446;SDS011;27185;52.040;4.490;2024-02-23T13:52:52;1.70;;;0.20;;
41446;SDS011;27185;52.040;4.490;2024-02-23T13:55:38;1.98;;;0.20;;
41446;SDS011;27185;52.040;4.490;2024-02-23T13:58:24;1.83;;;0.30;;
41446;SDS011;27185;52.040;4.490;2024-02-23T14:01:10;1.08;;;0.20;;
41446;SDS011;27185;52.040;4.490;2024-02-23T14:03:55;2.45;;;0.35;;
41446;SDS011;27185;52.040;4.490;2024-02-23T14:06:41;0.98;;;0.20;;
41446;SDS011;27185;52.040;4.490;2024-02-23T14:09:26;3.40;;;0.30;;
41446;SDS011;27185;52.040;4.490;2024-02-23T14:12:12;2.15;;;0.28;;
41446;SDS011;27185;52.040;4.490;2024-02-23T14:14:58;3.95;;;0.30;;
41446;SDS011;27185;52.040;4.490;2024-02-23T14:17:43;2.03;;;0.20;;
41446;SDS011;27185;52.040;4.490;2024-02-23T14:20:29;1.95;;;0.40;;
41446;SDS011;27185;52.040;4.490;2024-02-23T14:23:15;2.67;;;0.30;;
41446;SDS011;27185;52.040;4.490;2024-02-23T14:26:00;1.92;;;0.40;;
41446;SDS011;27185;52.040;4.490;2024-02-23T14:28:46;1.60;;;0.30;;
41446;SDS011;27185;52.040;4.490;2024-02-23T14:31:31;2.78;;;0.45;;
41446;SDS011;27185;52.040;4.490;2024-02-23T14:34:17;3.88;;;0.45;;
41446;SDS011;27185;52.040;4.490;2024-02-23T14:37:05;1.85;;;0.40;;
41446;SDS011;27185;52.040;4.490;2024-02-23T14:39:51;1.67;;;0.38;;
41446;SDS011;27185;52.040;4.490;2024-02-23T14:42:37;1.92;;;0.40;;
41446;SDS011;27185;52.040;4.490;2024-02-23T14:45:24;4.40;;;0.50;;
41446;SDS011;27185;52.040;4.490;2024-02-23T14:48:12;4.35;;;0.50;;
41446;SDS011;27185;52.040;4.490;2024-02-23T14:50:58;1.15;;;0.40;;
41446;SDS011;27185;52.040;4.490;2024-02-23T14:53:44;4.47;;;0.63;;
41446;SDS011;27185;52.040;4.490;2024-02-23T14:56:30;1.67;;;0.50;;
41446;SDS011;27185;52.040;4.490;2024-02-23T14:59:16;6.72;;;0.55;;
41446;SDS011;27185;52.040;4.490;2024-02-23T15:02:02;3.55;;;0.47;;
41446;SDS011;27185;52.040;4.490;2024-02-23T15:04:48;0.95;;;0.30;;
41446;SDS011;27185;52.040;4.490;2024-02-23T15:07:34;6.93;;;1.48;;
41446;SDS011;27185;52.040;4.490;2024-02-23T15:10:20;1.38;;;0.40;;
41446;SDS011;27185;52.040;4.490;2024-02-23T15:13:07;5.20;;;0.63;;
41446;SDS011;27185;52.040;4.490;2024-02-23T15:15:53;2.67;;;0.50;;
41446;SDS011;27185;52.040;4.490;2024-02-23T15:18:39;2.70;;;0.50;;
41446;SDS011;27185;52.040;4.490;2024-02-23T15:21:25;2.95;;;0.50;;
41446;SDS011;27185;52.040;4.490;2024-02-23T15:24:14;1.88;;;0.82;;
41446;SDS011;27185;52.040;4.490;2024-02-23T15:27:03;5.20;;;0.77;;
41446;SDS011;27185;52.040;4.490;2024-02-23T15:29:49;4.22;;;0.80;;
41446;SDS011;27185;52.040;4.490;2024-02-23T15:32:35;3.83;;;0.80;;
41446;SDS011;27185;52.040;4.490;2024-02-23T15:35:22;4.40;;;1.00;;
41446;SDS011;27185;52.040;4.490;2024-02-23T15:38:11;4.60;;;0.98;;
41446;SDS011;27185;52.040;4.490;2024-02-23T15:40:57;2.67;;;0.70;;
41446;SDS011;27185;52.040;4.490;2024-02-23T15:43:43;2.58;;;0.70;;
41446;SDS011;27185;52.040;4.490;2024-02-23T15:46:28;3.38;;;1.05;;
41446;SDS011;27185;52.040;4.490;2024-02-23T15:49:16;6.03;;;1.13;;
41446;SDS011;27185;52.040;4.490;2024-02-23T15:52:03;7.28;;;1.10;;
41446;SDS011;27185;52.040;4.490;2024-02-23T15:54:50;5.40;;;0.70;;
41446;SDS011;27185;52.040;4.490;2024-02-23T15:57:37;5.57;;;0.80;;
41446;SDS011;27185;52.040;4.490;2024-02-23T16:00:23;4.22;;;0.65;;
41446;SDS011;27185;52.040;4.490;2024-02-23T16:03:09;3.50;;;1.15;;
41446;SDS011;27185;52.040;4.490;2024-02-23T16:05:55;4.10;;;1.08;;
41446;SDS011;27185;52.040;4.490;2024-02-23T16:08:42;5.13;;;0.80;;
41446;SDS011;27185;52.040;4.490;2024-02-23T16:11:31;5.90;;;0.60;;
41446;SDS011;27185;52.040;4.490;2024-02-23T16:14:17;4.60;;;0.70;;
41446;SDS011;27185;52.040;4.490;2024-02-23T16:17:06;3.15;;;0.70;;
41446;SDS011;27185;52.040;4.490;2024-02-23T16:19:52;2.85;;;0.43;;
41446;SDS011;27185;52.040;4.490;2024-02-23T16:22:38;2.35;;;0.52;;
41446;SDS011;27185;52.040;4.490;2024-02-23T16:25:26;1.63;;;0.40;;
41446;SDS011;27185;52.040;4.490;2024-02-23T16:28:12;1.13;;;0.40;;
41446;SDS011;27185;52.040;4.490;2024-02-23T16:30:58;2.40;;;0.60;;
41446;SDS011;27185;52.040;4.490;2024-02-23T16:33:43;3.25;;;0.30;;
41446;SDS011;27185;52.040;4.490;2024-02-23T16:36:29;4.70;;;0.50;;
41446;SDS011;27185;52.040;4.490;2024-02-23T16:39:15;1.55;;;0.40;;
41446;SDS011;27185;52.040;4.490;2024-02-23T16:42:01;1.92;;;0.60;;
41446;SDS011;27185;52.040;4.490;2024-02-23T16:44:47;2.38;;;0.52;;
41446;SDS011;27185;52.040;4.490;2024-02-23T16:47:33;3.83;;;0.60;;
41446;SDS011;27185;52.040;4.490;2024-02-23T16:50:18;1.35;;;0.30;;
41446;SDS011;27185;52.040;4.490;2024-02-23T16:53:05;3.63;;;0.35;;
41446;SDS011;27185;52.040;4.490;2024-02-23T16:55:50;1.13;;;0.30;;
41446;SDS011;27185;52.040;4.490;2024-02-23T16:58:36;1.33;;;0.30;;
41446;SDS011;27185;52.040;4.490;2024-02-23T17:01:23;3.10;;;0.40;;
41446;SDS011;27185;52.040;4.490;2024-02-23T17:04:09;2.88;;;0.40;;
41446;SDS011;27185;52.040;4.490;2024-02-23T17:06:54;1.38;;;0.40;;
41446;SDS011;27185;52.040;4.490;2024-02-23T17:09:42;1.48;;;0.40;;
41446;SDS011;27185;52.040;4.490;2024-02-23T17:12:31;1.92;;;0.40;;
41446;SDS011;27185;52.040;4.490;2024-02-23T17:15:18;1.77;;;0.40;;
41446;SDS011;27185;52.040;4.490;2024-02-23T17:18:04;0.50;;;0.22;;
41446;SDS011;27185;52.040;4.490;2024-02-23T17:20:52;1.17;;;0.30;;
41446;SDS011;27185;52.040;4.490;2024-02-23T17:23:38;1.63;;;0.40;;
41446;SDS011;27185;52.040;4.490;2024-02-23T17:26:24;3.97;;;0.40;;
41446;SDS011;27185;52.040;4.490;2024-02-23T17:29:10;2.25;;;0.40;;
41446;SDS011;27185;52.040;4.490;2024-02-23T17:31:57;2.20;;;0.40;;
41446;SDS011;27185;52.040;4.490;2024-02-23T17:34:43;1.02;;;0.40;;
41446;SDS011;27185;52.040;4.490;2024-02-23T17:37:28;2.97;;;0.60;;
41446;SDS011;27185;52.040;4.490;2024-02-23T17:40:14;3.97;;;0.45;;
41446;SDS011;27185;52.040;4.490;2024-02-23T17:43:00;1.88;;;0.40;;
41446;SDS011;27185;52.040;4.490;2024-02-23T17:45:46;4.35;;;0.60;;
41446;SDS011;27185;52.040;4.490;2024-02-23T17:48:31;4.28;;;0.73;;
41446;SDS011;27185;52.040;4.490;2024-02-23T17:51:17;1.83;;;0.60;;